logo
Search for airport 
image banner adimage banner adimage banner ad
image banner ad

FAAUGR - Augrabies

Located in , South Africa

ICAO - , IATA -

Data provided by Airmate  

General information

Coordinates: S28°37'48" E20°19'12"
Elevation is 2201 feet MSL.
 
Rated:
View ratings:
[VIEW]
View others Airports in Northern Cape

Operational data

Special qualification required
Current time UTC:
Current local time:
Weather at : - ( 0 km )
METAR: YLHI 181027Z AUTO 08005KT 040V100 9999 -TSRA SCT039 BKN071 BKN095 20/19 Q1015 RESHRA
View NOTAMs / SUP AIP / TFR affecting this airport [VIEW]
Communications frequencies: [VIEW]

Runways:

RWY identifierQFULength (ft)Width (ft)SurfaceLDA (ft)
0880°426566SAND
26260°426566SAND

Airport contact information

Address: South Africa

Non aviation service providers

Hotel

Dundi Lodge

Dundi Lodge
Rated:
View ratings:
[VIEW]

Satellite view of FAAUGR